Time;durP1;ratioP1;P1;durP2;ratioP2;P2;SDS_P1;SDS_P2;PMS_P1;PMS_P2;Temp;Humidity;BMP_temperature;BMP_pressure;BME280_temperature;BME280_humidity;BME280_pressure;Samples;Min_cycle;Max_cycle;Signal;HPM_P1;HPM_P2
2022/05/12 00:00:56;;;;;;;8.18;2.63;;;;;;;;;;5062572;28;20057;-76
2022/05/12 00:03:24;;;;;;;8.38;1.40;;;;;;;;;;5065744;28;20144;-76
2022/05/12 00:05:50;;;;;;;10.00;2.15;;;;;;;;;;5059639;28;20084;-79
2022/05/12 00:08:16;;;;;;;9.15;1.45;;;;;;;;;;5077764;28;20136;-79
2022/05/12 00:10:43;;;;;;;10.38;1.83;;;;;;;;;;5077153;28;20041;-79
2022/05/12 00:13:09;;;;;;;9.77;1.88;;;;;;;;;;5077692;28;20072;-79
2022/05/12 00:15:36;;;;;;;9.20;1.52;;;;;;;;;;5075371;28;20160;-78
2022/05/12 00:18:06;;;;;;;14.00;1.60;;;;;;;;;;5078114;28;20077;-78
2022/05/12 00:20:33;;;;;;;10.13;1.70;;;;;;;;;;5075503;28;20071;-79
2022/05/12 00:23:06;;;;;;;9.88;1.55;;;;;;;;;;5066375;28;20275;-77
2022/05/12 00:25:32;;;;;;;5.47;1.48;;;;;;;;;;5058039;28;20065;-76
2022/05/12 00:27:59;;;;;;;12.23;1.52;;;;;;;;;;5062540;28;22122;-77
2022/05/12 00:30:25;;;;;;;11.38;1.77;;;;;;;;;;5062300;28;20053;-77
2022/05/12 00:32:51;;;;;;;9.48;1.55;;;;;;;;;;5069148;28;20136;-76
2022/05/12 00:35:18;;;;;;;13.13;1.85;;;;;;;;;;5059115;28;20061;-77
2022/05/12 00:37:44;;;;;;;6.78;1.52;;;;;;;;;;5064525;28;20056;-76
2022/05/12 00:40:11;;;;;;;14.45;1.73;;;;;;;;;;5065306;28;21327;-76
2022/05/12 00:42:50;;;;;;;7.07;1.55;;;;;;;;;;5060969;28;20079;-77
2022/05/12 00:45:17;;;;;;;8.85;1.85;;;;;;;;;;5072820;28;20057;-76
2022/05/12 00:47:43;;;;;;;7.50;1.60;;;;;;;;;;5062242;28;20078;-76
2022/05/12 00:50:09;;;;;;;9.07;1.70;;;;;;;;;;5065602;28;20517;-76
2022/05/12 00:52:36;;;;;;;8.20;2.08;;;;;;;;;;5064412;28;20057;-76
2022/05/12 00:55:02;;;;;;;7.15;1.35;;;;;;;;;;5060474;28;20057;-76
2022/05/12 00:57:32;;;;;;;11.73;1.77;;;;;;;;;;5062821;28;20053;-76
2022/05/12 00:59:59;;;;;;;9.50;1.95;;;;;;;;;;5057113;28;20538;-77
2022/05/12 01:02:27;;;;;;;9.52;1.50;;;;;;;;;;5060382;28;20098;-77
2022/05/12 01:04:55;;;;;;;8.55;1.70;;;;;;;;;;5048434;28;20113;-77
2022/05/12 01:07:21;;;;;;;9.50;1.75;;;;;;;;;;5065226;28;20148;-75
2022/05/12 01:09:47;;;;;;;13.05;2.20;;;;;;;;;;5056601;28;20064;-76
2022/05/12 01:12:14;;;;;;;5.88;1.92;;;;;;;;;;5063106;28;20544;-76
2022/05/12 01:14:40;;;;;;;11.73;2.00;;;;;;;;;;5064796;28;20132;-76
2022/05/12 01:17:07;;;;;;;7.63;1.80;;;;;;;;;;5067379;28;20041;-76
2022/05/12 01:19:35;;;;;;;13.23;2.40;;;;;;;;;;5061036;28;20057;-76
2022/05/12 01:22:03;;;;;;;10.23;2.00;;;;;;;;;;5067502;28;20063;-76
2022/05/12 01:24:31;;;;;;;8.82;2.10;;;;;;;;;;5062841;28;20060;-77
2022/05/12 01:27:18;;;;;;;13.52;2.30;;;;;;;;;;5063080;28;20136;-76
2022/05/12 01:29:49;;;;;;;12.50;2.72;;;;;;;;;;5059893;28;20205;-77
2022/05/12 01:32:16;;;;;;;8.70;2.05;;;;;;;;;;5059054;28;20049;-76
2022/05/12 01:34:42;;;;;;;9.32;2.42;;;;;;;;;;5062383;28;20143;-76
2022/05/12 01:37:08;;;;;;;8.15;2.50;;;;;;;;;;5064027;28;20519;-77
2022/05/12 01:39:35;;;;;;;8.85;2.10;;;;;;;;;;5064523;28;20061;-77
2022/05/12 01:42:03;;;;;;;8.50;2.28;;;;;;;;;;5063618;28;20053;-77
2022/05/12 01:44:29;;;;;;;11.35;2.22;;;;;;;;;;5061064;28;20184;-76
2022/05/12 01:46:56;;;;;;;10.85;2.53;;;;;;;;;;5060906;28;20061;-76
2022/05/12 01:49:23;;;;;;;10.20;2.20;;;;;;;;;;5062285;28;20148;-76
2022/05/12 01:51:53;;;;;;;8.77;2.38;;;;;;;;;;5057266;28;20077;-77
2022/05/12 01:54:19;;;;;;;9.13;2.40;;;;;;;;;;5062231;28;20057;-76
2022/05/12 01:56:46;;;;;;;11.23;2.22;;;;;;;;;;5064494;28;20095;-77
2022/05/12 01:59:11;;;;;;;10.63;2.05;;;;;;;;;;5063471;28;20133;-76
2022/05/12 02:01:38;;;;;;;8.02;2.15;;;;;;;;;;5059308;28;20068;-76
2022/05/12 02:04:05;;;;;;;8.68;2.67;;;;;;;;;;5061915;28;20057;-77
2022/05/12 02:06:32;;;;;;;7.22;2.10;;;;;;;;;;5065301;28;20170;-77
2022/05/12 02:08:59;;;;;;;11.18;2.33;;;;;;;;;;5061880;28;20057;-76
2022/05/12 02:11:25;;;;;;;12.85;2.67;;;;;;;;;;5064618;28;20060;-77
2022/05/12 02:13:52;;;;;;;11.43;2.53;;;;;;;;;;5062522;28;20055;-76
2022/05/12 02:16:18;;;;;;;5.35;2.55;;;;;;;;;;5063785;28;20155;-76
2022/05/12 02:18:45;;;;;;;9.52;3.10;;;;;;;;;;5063908;28;20052;-77
2022/05/12 02:21:11;;;;;;;10.65;2.85;;;;;;;;;;5065885;28;20106;-77
2022/05/12 02:23:37;;;;;;;8.55;2.70;;;;;;;;;;5064381;28;20517;-77
2022/05/12 02:26:04;;;;;;;8.50;2.92;;;;;;;;;;5062070;28;20045;-77
2022/05/12 02:28:30;;;;;;;12.40;2.92;;;;;;;;;;5064768;28;20167;-77
2022/05/12 02:30:56;;;;;;;12.65;3.15;;;;;;;;;;5062103;28;20129;-76
2022/05/12 02:33:23;;;;;;;7.43;3.13;;;;;;;;;;5060738;28;20053;-76
2022/05/12 02:35:49;;;;;;;11.15;3.50;;;;;;;;;;5065997;28;20175;-76
2022/05/12 02:38:15;;;;;;;12.45;3.22;;;;;;;;;;5065510;28;20581;-77
2022/05/12 02:40:42;;;;;;;15.07;3.58;;;;;;;;;;5064531;28;20065;-76
2022/05/12 02:43:24;;;;;;;14.60;3.80;;;;;;;;;;5057929;28;20450;-76
2022/05/12 02:45:51;;;;;;;12.93;3.92;;;;;;;;;;5054476;28;20143;-77
2022/05/12 02:48:22;;;;;;;9.65;3.90;;;;;;;;;;5063450;28;20057;-77
2022/05/12 02:50:48;;;;;;;10.15;3.90;;;;;;;;;;5074371;28;20037;-77
2022/05/12 02:53:15;;;;;;;9.20;4.05;;;;;;;;;;5058686;28;20049;-77
2022/05/12 02:55:41;;;;;;;9.73;3.97;;;;;;;;;;5060783;28;20057;-77
2022/05/12 02:58:08;;;;;;;11.77;5.03;;;;;;;;;;5065097;28;20131;-76
2022/05/12 03:00:35;;;;;;;14.90;4.38;;;;;;;;;;5064738;28;20136;-77
2022/05/12 03:03:08;;;;;;;11.85;4.72;;;;;;;;;;5066502;28;20049;-76
2022/05/12 03:05:35;;;;;;;14.23;5.20;;;;;;;;;;5066869;28;20511;-77
2022/05/12 03:08:02;;;;;;;13.55;4.80;;;;;;;;;;5066829;28;20063;-77
2022/05/12 03:10:28;;;;;;;12.23;5.53;;;;;;;;;;5066209;28;20140;-76
2022/05/12 03:12:55;;;;;;;10.10;5.32;;;;;;;;;;5071220;28;20096;-76
2022/05/12 03:15:21;;;;;;;13.93;5.18;;;;;;;;;;5067207;28;20091;-76
2022/05/12 03:17:47;;;;;;;12.40;5.65;;;;;;;;;;5063324;28;20053;-76
2022/05/12 03:20:15;;;;;;;13.75;6.00;;;;;;;;;;5066570;28;20095;-77
2022/05/12 03:22:41;;;;;;;12.35;5.85;;;;;;;;;;5069118;28;20049;-76
2022/05/12 03:25:10;;;;;;;14.73;5.35;;;;;;;;;;5064207;28;20053;-76
2022/05/12 03:27:37;;;;;;;13.55;6.13;;;;;;;;;;5065506;28;20052;-77
2022/05/12 03:30:05;;;;;;;12.15;5.65;;;;;;;;;;5068268;28;20055;-77
2022/05/12 03:32:31;;;;;;;18.55;6.40;;;;;;;;;;5066373;28;20585;-77
2022/05/12 03:34:57;;;;;;;12.18;7.00;;;;;;;;;;5042757;28;20061;-77
2022/05/12 03:37:24;;;;;;;16.48;6.75;;;;;;;;;;5065848;28;20132;-76
2022/05/12 03:39:50;;;;;;;16.23;6.78;;;;;;;;;;5069341;28;20100;-79
2022/05/12 03:42:18;;;;;;;13.13;6.13;;;;;;;;;;5079855;28;20063;-78
2022/05/12 03:44:54;;;;;;;12.02;6.28;;;;;;;;;;5076208;28;20049;-78
2022/05/12 03:47:25;;;;;;;12.63;5.95;;;;;;;;;;5078124;28;20118;-78
2022/05/12 03:49:53;;;;;;;15.27;6.90;;;;;;;;;;5077353;28;20077;-78
2022/05/12 03:52:20;;;;;;;14.25;6.30;;;;;;;;;;5073475;28;20045;-79
2022/05/12 03:54:48;;;;;;;14.13;7.15;;;;;;;;;;5076443;28;20057;-79
2022/05/12 03:57:15;;;;;;;12.80;6.45;;;;;;;;;;5075648;28;20174;-79
2022/05/12 03:59:41;;;;;;;13.85;7.05;;;;;;;;;;5076063;28;20647;-78
2022/05/12 04:02:09;;;;;;;11.88;6.15;;;;;;;;;;5070462;28;20136;-76
2022/05/12 04:04:36;;;;;;;11.35;6.45;;;;;;;;;;5068215;28;20083;-77
2022/05/12 04:07:03;;;;;;;10.35;6.03;;;;;;;;;;5064155;28;20894;-77
2022/05/12 04:09:29;;;;;;;11.30;6.20;;;;;;;;;;5067965;28;20061;-76
2022/05/12 04:11:56;;;;;;;12.15;5.97;;;;;;;;;;5066951;28;20132;-76
2022/05/12 04:14:22;;;;;;;11.13;5.55;;;;;;;;;;5064808;28;20065;-77
2022/05/12 04:16:49;;;;;;;12.90;5.93;;;;;;;;;;5064376;28;20167;-77
2022/05/12 04:19:15;;;;;;;12.27;5.68;;;;;;;;;;5063816;28;20482;-77
2022/05/12 04:21:42;;;;;;;11.52;5.70;;;;;;;;;;5067674;28;21080;-77
2022/05/12 04:24:09;;;;;;;13.38;5.95;;;;;;;;;;5059099;28;20033;-77
2022/05/12 04:26:37;;;;;;;16.08;5.90;;;;;;;;;;5065190;28;20049;-77
2022/05/12 04:29:04;;;;;;;12.10;6.10;;;;;;;;;;5068663;28;20978;-76
2022/05/12 04:31:31;;;;;;;11.50;5.70;;;;;;;;;;5065721;28;20884;-77
2022/05/12 04:36:42;;;;;;;12.65;5.93;;;;;;;;;;5061964;28;20073;-76
2022/05/12 04:39:09;;;;;;;11.38;5.90;;;;;;;;;;5070659;28;20104;-77
2022/05/12 04:41:35;;;;;;;10.95;5.07;;;;;;;;;;5062500;28;20143;-77
2022/05/12 04:44:02;;;;;;;12.30;5.45;;;;;;;;;;5061901;28;20075;-77
2022/05/12 04:46:28;;;;;;;10.90;5.93;;;;;;;;;;5063066;28;20057;-76
2022/05/12 04:48:55;;;;;;;12.00;6.10;;;;;;;;;;5067238;28;20057;-77
2022/05/12 04:51:22;;;;;;;14.38;6.00;;;;;;;;;;5067620;28;20065;-77
2022/05/12 04:53:48;;;;;;;12.75;5.65;;;;;;;;;;5064460;28;20053;-77
2022/05/12 04:56:15;;;;;;;11.07;5.72;;;;;;;;;;5067399;28;20049;-77
2022/05/12 04:58:41;;;;;;;11.23;5.40;;;;;;;;;;5072621;28;20049;-78
2022/05/12 05:01:07;;;;;;;12.10;6.20;;;;;;;;;;5075740;28;20109;-78
2022/05/12 05:03:34;;;;;;;12.68;6.05;;;;;;;;;;5075845;28;20047;-79
2022/05/12 05:06:00;;;;;;;13.18;6.45;;;;;;;;;;5073979;28;20041;-79
2022/05/12 05:08:27;;;;;;;19.13;5.88;;;;;;;;;;5068350;28;20862;-79
2022/05/12 05:10:54;;;;;;;11.88;6.07;;;;;;;;;;5062115;28;20095;-79
2022/05/12 05:13:21;;;;;;;13.98;6.38;;;;;;;;;;5069875;28;20076;-80
2022/05/12 05:15:48;;;;;;;10.95;6.28;;;;;;;;;;5067714;28;20775;-79
2022/05/12 05:18:16;;;;;;;11.38;6.03;;;;;;;;;;5052961;28;20106;-78
2022/05/12 05:20:43;;;;;;;11.93;6.00;;;;;;;;;;5067214;28;20132;-79
2022/05/12 05:23:11;;;;;;;13.15;5.72;;;;;;;;;;5068186;28;20061;-78
2022/05/12 05:25:38;;;;;;;12.95;6.32;;;;;;;;;;5064516;28;20106;-79
2022/05/12 05:28:05;;;;;;;16.25;6.85;;;;;;;;;;5068911;28;20111;-79
2022/05/12 05:30:33;;;;;;;12.70;6.25;;;;;;;;;;5070053;28;20084;-78
2022/05/12 05:32:59;;;;;;;14.18;6.32;;;;;;;;;;5072834;28;20063;-79
2022/05/12 05:35:25;;;;;;;13.55;6.55;;;;;;;;;;5068101;28;20049;-79
2022/05/12 05:37:53;;;;;;;12.40;6.57;;;;;;;;;;5089221;28;20179;-79
2022/05/12 05:40:21;;;;;;;15.43;7.03;;;;;;;;;;5069138;28;20059;-79
2022/05/12 05:42:47;;;;;;;12.07;5.82;;;;;;;;;;5069243;28;20838;-77
2022/05/12 05:45:16;;;;;;;13.23;5.55;;;;;;;;;;5063003;28;20052;-77
2022/05/12 05:47:45;;;;;;;12.48;5.65;;;;;;;;;;5064838;28;20057;-77
2022/05/12 05:50:16;;;;;;;9.40;5.35;;;;;;;;;;5056640;28;21159;-77
2022/05/12 05:55:27;;;;;;;12.95;5.25;;;;;;;;;;5059192;28;20049;-77
2022/05/12 05:57:56;;;;;;;13.18;4.90;;;;;;;;;;5063908;28;20064;-77
2022/05/12 06:00:26;;;;;;;11.50;4.70;;;;;;;;;;5062372;28;20076;-78
2022/05/12 06:02:52;;;;;;;14.27;5.13;;;;;;;;;;5064705;28;20140;-80
2022/05/12 06:05:19;;;;;;;8.90;4.20;;;;;;;;;;5060779;28;20855;-80
2022/05/12 06:07:45;;;;;;;9.07;4.50;;;;;;;;;;5054592;28;20053;-79
2022/05/12 06:10:12;;;;;;;14.70;4.72;;;;;;;;;;5057645;28;20556;-79
2022/05/12 06:12:38;;;;;;;9.13;4.32;;;;;;;;;;5064498;28;20096;-79
2022/05/12 06:15:05;;;;;;;14.45;4.45;;;;;;;;;;5066054;28;20092;-79
2022/05/12 06:17:33;;;;;;;10.73;4.30;;;;;;;;;;5066255;28;20060;-78
2022/05/12 06:20:00;;;;;;;10.52;4.55;;;;;;;;;;5066111;28;20087;-79
2022/05/12 06:22:26;;;;;;;10.98;4.25;;;;;;;;;;5068956;28;20096;-79
2022/05/12 06:24:53;;;;;;;12.95;4.32;;;;;;;;;;5071130;28;20139;-79
2022/05/12 06:27:19;;;;;;;15.88;4.15;;;;;;;;;;5068939;28;20049;-81
2022/05/12 06:29:46;;;;;;;9.68;3.72;;;;;;;;;;5083488;28;20136;-81
2022/05/12 06:32:13;;;;;;;9.27;4.20;;;;;;;;;;5070499;28;20065;-80
2022/05/12 06:34:42;;;;;;;10.13;3.80;;;;;;;;;;5072415;28;20886;-81
2022/05/12 06:37:09;;;;;;;10.63;3.63;;;;;;;;;;5071417;28;20305;-81
2022/05/12 06:39:35;;;;;;;9.40;3.72;;;;;;;;;;5070422;28;20086;-80
2022/05/12 06:42:02;;;;;;;10.05;3.42;;;;;;;;;;5067726;28;20142;-81
2022/05/12 06:44:29;;;;;;;9.30;4.05;;;;;;;;;;5070048;28;20132;-80
2022/05/12 06:46:56;;;;;;;13.55;3.97;;;;;;;;;;5067367;28;20044;-80
2022/05/12 06:49:23;;;;;;;10.18;3.50;;;;;;;;;;5072680;28;20120;-80
2022/05/12 06:51:51;;;;;;;9.70;3.55;;;;;;;;;;5063040;28;20055;-80
2022/05/12 06:54:17;;;;;;;8.35;4.10;;;;;;;;;;5068462;28;20077;-80
2022/05/12 06:56:44;;;;;;;6.72;3.15;;;;;;;;;;5074976;28;20127;-80
2022/05/12 06:59:10;;;;;;;9.65;3.30;;;;;;;;;;5070234;28;20904;-80
2022/05/12 07:01:37;;;;;;;11.05;4.00;;;;;;;;;;5070216;28;20057;-81
2022/05/12 07:04:04;;;;;;;7.50;3.40;;;;;;;;;;5066787;28;20103;-81
2022/05/12 07:06:30;;;;;;;11.88;3.42;;;;;;;;;;5057463;28;20045;-79
2022/05/12 07:08:57;;;;;;;8.35;3.10;;;;;;;;;;5062611;28;20055;-79
2022/05/12 07:11:23;;;;;;;8.35;3.38;;;;;;;;;;5065887;28;20108;-79
2022/05/12 07:13:49;;;;;;;9.20;3.13;;;;;;;;;;5062934;28;20140;-79
2022/05/12 07:16:16;;;;;;;10.23;3.38;;;;;;;;;;5063725;28;20144;-79
2022/05/12 07:18:45;;;;;;;9.15;3.30;;;;;;;;;;5065495;28;20057;-78
2022/05/12 07:26:54;;;;;;;10.85;3.25;;;;;;;;;;5054762;28;20402;-79
2022/05/12 07:29:20;;;;;;;;;;;;;;;;;;5064342;28;20076;-79
2022/05/12 07:31:49;;;;;;;6.57;2.92;;;;;;;;;;5075585;28;46680;-79
2022/05/12 07:34:17;;;;;;;7.70;2.37;;;;;;;;;;5066450;28;20075;-79
2022/05/12 07:36:45;;;;;;;8.40;2.88;;;;;;;;;;5069976;28;20165;-79
2022/05/12 07:39:14;;;;;;;10.10;3.20;;;;;;;;;;5066331;28;20106;-79
2022/05/12 07:41:43;;;;;;;9.75;2.97;;;;;;;;;;5072596;28;20073;-79
2022/05/12 07:44:10;;;;;;;5.22;2.50;;;;;;;;;;5066646;28;20112;-78
2022/05/12 07:46:37;;;;;;;8.55;2.65;;;;;;;;;;5067795;28;20825;-78
2022/05/12 07:49:03;;;;;;;9.75;2.70;;;;;;;;;;5065074;28;20135;-79
2022/05/12 07:51:30;;;;;;;8.50;2.80;;;;;;;;;;5079741;28;20493;-79
2022/05/12 07:53:56;;;;;;;7.75;3.10;;;;;;;;;;5077780;28;20052;-79
2022/05/12 07:56:25;;;;;;;7.30;2.45;;;;;;;;;;5073753;28;20094;-78
2022/05/12 07:58:52;;;;;;;7.97;2.38;;;;;;;;;;5072224;28;20140;-78
2022/05/12 08:01:19;;;;;;;8.13;2.70;;;;;;;;;;5068366;28;20357;-78
2022/05/12 08:03:45;;;;;;;10.57;2.70;;;;;;;;;;5052636;28;20030;-80
2022/05/12 08:06:14;;;;;;;7.93;2.80;;;;;;;;;;5067723;28;20084;-79
2022/05/12 08:08:41;;;;;;;8.70;2.30;;;;;;;;;;5067201;28;20052;-80
2022/05/12 08:11:08;;;;;;;5.75;2.40;;;;;;;;;;5068933;28;20104;-80
2022/05/12 08:13:35;;;;;;;6.65;2.70;;;;;;;;;;5058513;28;20066;-80
2022/05/12 08:16:02;;;;;;;8.73;2.38;;;;;;;;;;5043053;28;20051;-80
2022/05/12 08:18:29;;;;;;;7.95;2.33;;;;;;;;;;5049188;28;20060;-79
2022/05/12 08:20:55;;;;;;;5.18;2.08;;;;;;;;;;5060867;28;20162;-79
2022/05/12 08:23:22;;;;;;;5.03;1.90;;;;;;;;;;5061174;28;20064;-79
2022/05/12 08:25:49;;;;;;;6.07;1.60;;;;;;;;;;5057511;28;20432;-79
2022/05/12 08:28:16;;;;;;;4.13;1.52;;;;;;;;;;5052319;28;20063;-79
2022/05/12 08:30:44;;;;;;;4.88;1.80;;;;;;;;;;5059830;28;20049;-79
2022/05/12 08:33:11;;;;;;;5.63;1.80;;;;;;;;;;5058894;28;20739;-79
2022/05/12 08:35:37;;;;;;;6.05;1.77;;;;;;;;;;5053472;28;20053;-79
2022/05/12 08:38:04;;;;;;;4.78;1.40;;;;;;;;;;5059644;28;20049;-79
2022/05/12 08:40:30;;;;;;;5.55;1.77;;;;;;;;;;5058740;28;20077;-79
2022/05/12 08:43:01;;;;;;;6.35;1.70;;;;;;;;;;5063562;28;20683;-79
2022/05/12 08:45:32;;;;;;;6.95;1.60;;;;;;;;;;5059049;28;20156;-80
2022/05/12 08:48:00;;;;;;;5.82;1.67;;;;;;;;;;5068344;28;20063;-79
2022/05/12 08:50:28;;;;;;;6.22;1.60;;;;;;;;;;5055743;28;20597;-80
2022/05/12 08:52:57;;;;;;;4.93;1.70;;;;;;;;;;5059491;28;20057;-80
2022/05/12 08:55:42;;;;;;;5.88;1.65;;;;;;;;;;5056245;28;20053;-79
2022/05/12 08:58:14;;;;;;;5.40;1.40;;;;;;;;;;5060212;28;20080;-80
2022/05/12 09:00:47;;;;;;;5.80;1.77;;;;;;;;;;5060049;28;20076;-80
2022/05/12 09:03:20;;;;;;;6.10;1.85;;;;;;;;;;5055223;28;20053;-80
2022/05/12 09:05:55;;;;;;;7.20;1.92;;;;;;;;;;5057404;28;20115;-81
2022/05/12 09:08:29;;;;;;;4.82;1.63;;;;;;;;;;5066687;28;20060;-80
2022/05/12 09:10:59;;;;;;;4.45;1.55;;;;;;;;;;5065914;28;20103;-80
2022/05/12 09:13:25;;;;;;;;;;;;;;;;;;5062420;28;20151;-77
2022/05/12 09:16:10;;;;;;;5.07;1.55;;;;;;;;;;5059389;28;48533;-78
2022/05/12 09:18:37;;;;;;;5.30;1.40;;;;;;;;;;5056955;28;20052;-77
2022/05/12 09:21:06;;;;;;;5.53;1.60;;;;;;;;;;5055710;28;20148;-78
2022/05/12 09:23:33;;;;;;;8.25;1.80;;;;;;;;;;5062228;28;20760;-78
2022/05/12 09:25:59;;;;;;;5.03;1.60;;;;;;;;;;5060900;28;20063;-78
2022/05/12 09:28:31;;;;;;;5.82;1.48;;;;;;;;;;5058648;28;20049;-78
2022/05/12 09:31:15;;;;;;;4.93;1.50;;;;;;;;;;5058908;28;20055;-78
2022/05/12 09:33:43;;;;;;;4.43;1.30;;;;;;;;;;5059351;28;21319;-78
2022/05/12 09:36:14;;;;;;;4.72;1.77;;;;;;;;;;5057144;28;20060;-77
2022/05/12 09:38:42;;;;;;;5.35;1.52;;;;;;;;;;5051089;28;20060;-78
2022/05/12 09:41:38;;;;;;;5.28;1.52;;;;;;;;;;5051030;28;20055;-74
2022/05/12 09:44:17;;;;;;;5.05;1.80;;;;;;;;;;5037001;28;20088;-75
2022/05/12 09:46:54;;;;;;;6.88;1.58;;;;;;;;;;5068467;28;20140;-76
2022/05/12 09:49:23;;;;;;;5.13;1.40;;;;;;;;;;5063254;28;20060;-77
2022/05/12 09:51:49;;;;;;;4.57;1.45;;;;;;;;;;5075956;28;20079;-77
2022/05/12 09:54:25;;;;;;;3.70;1.40;;;;;;;;;;5083683;28;20060;-77
2022/05/12 09:57:04;;;;;;;5.13;1.30;;;;;;;;;;5072007;28;20075;-77
2022/05/12 09:59:31;;;;;;;5.57;1.60;;;;;;;;;;5061768;28;20173;-77
2022/05/12 10:02:00;;;;;;;7.38;1.65;;;;;;;;;;5055869;28;20290;-77
2022/05/12 10:08:01;;;;;;;5.75;1.80;;;;;;;;;;5044034;28;20137;-76
2022/05/12 10:10:11;;;;;;;5.93;2.00;;;;;;;;;;5042442;28;20153;-76
2022/05/12 10:12:52;;;;;;;8.05;1.90;;;;;;;;;;5064712;28;20146;-76
2022/05/12 10:15:25;;;;;;;5.55;1.60;;;;;;;;;;5066793;28;20049;-77
2022/05/12 10:17:55;;;;;;;4.90;1.70;;;;;;;;;;5062562;28;20185;-76
2022/05/12 10:20:23;;;;;;;5.20;1.55;;;;;;;;;;5047800;28;20076;-77
2022/05/12 10:23:05;;;;;;;5.43;1.40;;;;;;;;;;5051956;28;20456;-78
2022/05/12 10:25:57;;;;;;;4.80;1.48;;;;;;;;;;5067154;28;20849;-78
2022/05/12 10:28:23;;;;;;;3.70;1.40;;;;;;;;;;5069678;28;20492;-79
2022/05/12 10:31:04;;;;;;;4.45;1.20;;;;;;;;;;5064945;28;20107;-78
2022/05/12 10:33:30;;;;;;;6.90;1.65;;;;;;;;;;5057755;28;20052;-77
2022/05/12 10:36:22;;;;;;;5.47;1.38;;;;;;;;;;5064793;28;20171;-77
2022/05/12 10:38:57;;;;;;;4.15;1.35;;;;;;;;;;5066420;28;20061;-79
2022/05/12 10:41:38;;;;;;;4.57;1.42;;;;;;;;;;5048837;28;20057;-78
2022/05/12 10:44:16;;;;;;;5.82;1.60;;;;;;;;;;5060640;28;20140;-78
2022/05/12 10:46:46;;;;;;;4.22;1.48;;;;;;;;;;5064451;28;20101;-78
2022/05/12 10:49:18;;;;;;;4.28;1.58;;;;;;;;;;5066531;28;20053;-77
2022/05/12 10:51:44;;;;;;;7.72;1.70;;;;;;;;;;5062155;28;20136;-78
2022/05/12 10:54:28;;;;;;;5.13;1.70;;;;;;;;;;5067654;28;20112;-78
2022/05/12 10:56:57;;;;;;;5.18;1.48;;;;;;;;;;5058887;28;20067;-77
2022/05/12 10:59:39;;;;;;;3.58;1.50;;;;;;;;;;5064654;28;20680;-76
2022/05/12 11:02:30;;;;;;;4.07;1.30;;;;;;;;;;5066738;28;20059;-78
2022/05/12 11:05:07;;;;;;;4.88;1.70;;;;;;;;;;5063314;28;21075;-77
2022/05/12 11:07:42;;;;;;;5.85;1.65;;;;;;;;;;5061018;28;20560;-78
2022/05/12 11:10:16;;;;;;;8.15;1.60;;;;;;;;;;5052707;28;20596;-78
2022/05/12 11:12:48;;;;;;;4.60;1.50;;;;;;;;;;5064843;28;20132;-76
2022/05/12 11:15:43;;;;;;;7.82;1.98;;;;;;;;;;5066855;28;20142;-76
2022/05/12 11:18:14;;;;;;;5.18;1.85;;;;;;;;;;5068065;28;20107;-77
2022/05/12 11:20:43;;;;;;;7.75;2.20;;;;;;;;;;5066630;28;20067;-77
2022/05/12 11:23:19;;;;;;;5.03;1.65;;;;;;;;;;5066367;28;20510;-77
2022/05/12 11:25:55;;;;;;;4.50;1.20;;;;;;;;;;5066901;28;20067;-77
2022/05/12 11:31:25;;;;;;;7.85;1.85;;;;;;;;;;5070713;28;20588;-77
2022/05/12 11:33:54;;;;;;;5.80;1.70;;;;;;;;;;5077720;28;20057;-77
2022/05/12 11:36:20;;;;;;;4.78;1.38;;;;;;;;;;5068376;28;20045;-78
2022/05/12 11:38:51;;;;;;;5.97;1.50;;;;;;;;;;5066063;28;20814;-78
2022/05/12 11:41:22;;;;;;;7.13;1.83;;;;;;;;;;5067477;28;20060;-77
2022/05/12 11:46:52;;;;;;;6.88;1.50;;;;;;;;;;5065717;28;43934;-77
2022/05/12 11:49:37;;;;;;;5.82;1.55;;;;;;;;;;5047012;28;20089;-77
2022/05/12 11:52:15;;;;;;;5.88;1.77;;;;;;;;;;5047829;28;20054;-77
2022/05/12 11:54:52;;;;;;;7.55;1.77;;;;;;;;;;5051078;28;20052;-77
2022/05/12 11:57:25;;;;;;;5.90;1.70;;;;;;;;;;5066030;28;20106;-76
2022/05/12 11:59:56;;;;;;;5.38;1.65;;;;;;;;;;5067652;28;20144;-77
2022/05/12 12:02:29;;;;;;;4.95;1.30;;;;;;;;;;5060956;28;20102;-77
2022/05/12 12:04:56;;;;;;;5.90;1.60;;;;;;;;;;5065709;28;20049;-76
2022/05/12 12:07:26;;;;;;;5.82;1.80;;;;;;;;;;5063225;28;20493;-75
2022/05/12 12:09:53;;;;;;;4.47;1.40;;;;;;;;;;5065124;28;20079;-74
2022/05/12 12:12:39;;;;;;;6.50;1.65;;;;;;;;;;5074014;28;20616;-75
2022/05/12 12:15:05;;;;;;;7.45;1.90;;;;;;;;;;5077765;28;20057;-75
2022/05/12 12:17:37;;;;;;;5.15;1.80;;;;;;;;;;5056292;28;20049;-73
2022/05/12 12:20:05;;;;;;;5.63;1.50;;;;;;;;;;5064409;28;20059;-75
2022/05/12 12:22:38;;;;;;;5.97;1.83;;;;;;;;;;5059757;28;20144;-75
2022/05/12 12:25:23;;;;;;;5.55;1.63;;;;;;;;;;5064175;28;20063;-76
2022/05/12 12:27:52;;;;;;;5.55;1.50;;;;;;;;;;5060015;28;20511;-76
2022/05/12 12:30:22;;;;;;;3.17;1.50;;;;;;;;;;5056994;28;20049;-76
2022/05/12 12:33:07;;;;;;;3.85;1.50;;;;;;;;;;5063176;28;20093;-75
2022/05/12 12:35:49;;;;;;;4.97;1.42;;;;;;;;;;5063780;28;20063;-76
2022/05/12 12:38:34;;;;;;;5.85;1.52;;;;;;;;;;5059694;28;20061;-76
2022/05/12 12:41:01;;;;;;;8.85;1.70;;;;;;;;;;5061274;28;20143;-75
2022/05/12 12:43:33;;;;;;;5.18;1.45;;;;;;;;;;5062136;28;20048;-75
2022/05/12 12:46:09;;;;;;;5.47;1.40;;;;;;;;;;5061577;28;20502;-74
2022/05/12 12:48:39;;;;;;;5.20;1.40;;;;;;;;;;5063944;28;20513;-76
2022/05/12 12:51:07;;;;;;;6.00;1.42;;;;;;;;;;5062944;28;20136;-77
2022/05/12 12:56:31;;;;;;;5.72;1.67;;;;;;;;;;5064858;28;20061;-77
2022/05/12 12:58:59;;;;;;;4.03;1.33;;;;;;;;;;5063182;28;20908;-78
2022/05/12 13:01:35;;;;;;;6.38;1.55;;;;;;;;;;5059346;28;20048;-79
2022/05/12 13:04:01;;;;;;;5.35;1.40;;;;;;;;;;5062978;28;20430;-78
2022/05/12 13:06:30;;;;;;;4.47;1.75;;;;;;;;;;5065375;28;20057;-79
2022/05/12 13:08:57;;;;;;;6.90;1.50;;;;;;;;;;5064907;28;20076;-78
2022/05/12 13:11:24;;;;;;;4.25;1.40;;;;;;;;;;5064026;28;20067;-78
2022/05/12 13:13:52;;;;;;;3.92;1.30;;;;;;;;;;5065575;28;20053;-78
2022/05/12 13:16:20;;;;;;;4.35;1.35;;;;;;;;;;5064358;28;20540;-78
2022/05/12 13:18:50;;;;;;;6.47;1.75;;;;;;;;;;5063459;28;20111;-78
2022/05/12 13:21:24;;;;;;;5.90;1.70;;;;;;;;;;5059037;28;20127;-78
2022/05/12 13:24:02;;;;;;;6.13;1.50;;;;;;;;;;5064450;28;20132;-78
2022/05/12 13:26:29;;;;;;;4.05;1.40;;;;;;;;;;5064315;28;20140;-79
2022/05/12 13:28:55;;;;;;;4.47;1.55;;;;;;;;;;5059685;28;20057;-79
2022/05/12 13:31:24;;;;;;;7.57;1.30;;;;;;;;;;5060983;28;20057;-78
2022/05/12 13:33:55;;;;;;;6.88;1.38;;;;;;;;;;5064144;28;20513;-78
2022/05/12 13:36:23;;;;;;;3.08;1.23;;;;;;;;;;5063344;28;20622;-78
2022/05/12 13:38:49;;;;;;;5.47;1.40;;;;;;;;;;5064541;28;20049;-78
2022/05/12 13:41:26;;;;;;;4.57;1.33;;;;;;;;;;5062298;28;20144;-78
2022/05/12 13:43:59;;;;;;;4.20;1.60;;;;;;;;;;5064877;28;20057;-78
2022/05/12 13:46:26;;;;;;;5.80;1.30;;;;;;;;;;5054260;28;20045;-78
2022/05/12 13:49:10;;;;;;;4.35;1.40;;;;;;;;;;5047137;28;20049;-78
2022/05/12 13:51:45;;;;;;;4.75;1.20;;;;;;;;;;5063407;28;20066;-78
2022/05/12 13:54:34;;;;;;;4.32;1.25;;;;;;;;;;5057860;28;20087;-78
2022/05/12 13:57:19;;;;;;;6.50;1.65;;;;;;;;;;5052956;28;20076;-77
2022/05/12 14:00:00;;;;;;;5.20;1.40;;;;;;;;;;5060568;28;20124;-77
2022/05/12 14:02:30;;;;;;;7.28;1.50;;;;;;;;;;5058558;28;20107;-77
2022/05/12 14:04:59;;;;;;;4.78;1.20;;;;;;;;;;5063477;28;20056;-77
2022/05/12 14:07:27;;;;;;;6.32;1.52;;;;;;;;;;5063904;28;20066;-77
2022/05/12 14:09:55;;;;;;;5.53;1.80;;;;;;;;;;5064737;28;20136;-77
2022/05/12 14:19:13;;;;;;;5.40;1.50;;;;;;;;;;5063675;28;20503;-77
2022/05/12 14:20:59;;;;;;;5.18;1.70;;;;;;;;;;5059983;28;20048;-77
2022/05/12 14:23:25;;;;;;;5.63;1.40;;;;;;;;;;5061372;28;20141;-78
2022/05/12 14:25:52;;;;;;;5.32;1.48;;;;;;;;;;5062388;28;20089;-77
2022/05/12 14:28:19;;;;;;;4.50;1.60;;;;;;;;;;5062872;28;20064;-77
2022/05/12 14:30:45;;;;;;;4.90;1.60;;;;;;;;;;5055081;28;20875;-77
2022/05/12 14:33:12;;;;;;;5.53;1.45;;;;;;;;;;5060999;28;20060;-77
2022/05/12 14:35:39;;;;;;;5.40;1.70;;;;;;;;;;5064595;28;20143;-77
2022/05/12 14:38:06;;;;;;;5.15;1.70;;;;;;;;;;5061312;28;20189;-77
2022/05/12 14:40:32;;;;;;;4.18;1.70;;;;;;;;;;5059934;28;21285;-77
2022/05/12 14:42:59;;;;;;;3.85;1.55;;;;;;;;;;5063388;28;20084;-77
2022/05/12 14:45:26;;;;;;;5.32;1.58;;;;;;;;;;5056995;28;20096;-77
2022/05/12 14:47:58;;;;;;;4.05;1.40;;;;;;;;;;5057416;28;20144;-77
2022/05/12 14:50:24;;;;;;;6.00;1.45;;;;;;;;;;5054534;28;20049;-77
2022/05/12 14:52:51;;;;;;;4.53;1.33;;;;;;;;;;5053299;28;20611;-77
2022/05/12 14:55:20;;;;;;;6.13;1.70;;;;;;;;;;5050440;28;20053;-77
2022/05/12 14:57:47;;;;;;;3.72;1.30;;;;;;;;;;5057668;28;20053;-76
2022/05/12 15:00:13;;;;;;;9.98;1.40;;;;;;;;;;5074774;28;20513;-77
2022/05/12 15:02:42;;;;;;;5.93;1.35;;;;;;;;;;5062995;28;20144;-77
2022/05/12 15:05:09;;;;;;;4.82;1.35;;;;;;;;;;5060524;28;20061;-77
2022/05/12 15:07:39;;;;;;;3.45;1.15;;;;;;;;;;5061666;28;20049;-77
2022/05/12 15:10:07;;;;;;;3.95;1.30;;;;;;;;;;5056786;28;20525;-77
2022/05/12 15:12:34;;;;;;;4.88;1.50;;;;;;;;;;5071948;28;20428;-78
2022/05/12 15:15:01;;;;;;;5.10;1.25;;;;;;;;;;5063201;28;20056;-77
2022/05/12 15:17:32;;;;;;;2.92;1.05;;;;;;;;;;5054693;28;20059;-77
2022/05/12 15:19:59;;;;;;;5.15;1.42;;;;;;;;;;5062451;28;20599;-78